Wayana — PE5639 — position and weather

sailwx.info

Track history (hours):
 
Tides and Currents Weather Stations Pressure Air Temp Water Temp Dewpoint Dewpoint Depression Visibility Wind Speed Wind Dir Waves Ship Positions

Wayana

Last reported at 2017-Oct-15 09:13 UTC. Time now 2017-Oct-23 00:51 UTC.
Position N 52°55' E 005°03'.

Length 14 m.

Type: Sailing vessel. MMSI: 244020670.

Date/timePositionNaut miles runAvg speedWind from/ knotsBaromVisibWave heightAir tempDewpointWater temp
2017-Oct-15 09:13N 52°55' E 005°03'0 2.1
2017-Oct-15 09:00N 52°55' E 005°03'3 6.0
2017-Oct-15 08:30N 52°53' E 005°06'3 6.0
2017-Oct-15 08:00N 52°50' E 005°07'3 6.2
2017-Oct-15 07:30N 52°47' E 005°07'0 0.3
2017-Oct-15 06:38N 52°46' E 005°07'0 0.0
2017-Oct-15 06:29N 52°46' E 005°07'0 0.0
2017-Oct-15 05:59N 52°46' E 005°07'0 0.0
2017-Oct-15 05:29N 52°46' E 005°07'0 0.0
2017-Oct-15 04:59N 52°46' E 005°07'0 0.0
2017-Oct-15 04:28N 52°46' E 005°07'0 0.0
2017-Oct-15 03:58N 52°46' E 005°07'0 0.0
2017-Oct-15 03:28N 52°46' E 005°07'0 0.0
2017-Oct-15 02:58N 52°46' E 005°07'0 0.0
2017-Oct-15 02:28N 52°46' E 005°07'0 0.0
2017-Oct-15 01:58N 52°46' E 005°07'0 0.0
2017-Oct-15 01:28N 52°46' E 005°07'0 0.0
2017-Oct-15 00:58N 52°46' E 005°07'0 0.0
2017-Oct-15 00:28N 52°46' E 005°07'0 0.0
2017-Oct-14 23:58N 52°46' E 005°07'0 0.0
2017-Oct-14 23:28N 52°46' E 005°07'0 0.0
2017-Oct-14 22:58N 52°46' E 005°07'0 0.0
2017-Oct-14 22:28N 52°46' E 005°07'0 0.0
2017-Oct-14 21:58N 52°46' E 005°07'0 0.0
2017-Oct-14 21:28N 52°46' E 005°07'0 0.0
2017-Oct-14 20:58N 52°46' E 005°07'0 0.0
2017-Oct-14 20:31N 52°46' E 005°07'0 0.0
2017-Oct-14 20:00N 52°46' E 005°07'0 0.0
2017-Oct-14 19:30N 52°46' E 005°07'0 0.0
2017-Oct-14 19:00N 52°46' E 005°07'0 0.0
2017-Oct-14 18:30N 52°46' E 005°07'0 0.0
2017-Oct-14 18:00N 52°46' E 005°07'0 0.0
2017-Oct-14 17:30N 52°46' E 005°07'0 0.0
2017-Oct-14 17:00N 52°46' E 005°07'0 0.0
2017-Oct-14 16:30N 52°46' E 005°07'0 0.0
2017-Oct-14 16:00N 52°46' E 005°07'0 0.0
2017-Oct-14 15:30N 52°46' E 005°07'0 0.0
2017-Oct-14 15:00N 52°46' E 005°07'0 0.0
2017-Oct-14 14:30N 52°46' E 005°07'0 0.0
2017-Oct-14 14:00N 52°46' E 005°07'0 0.0
2017-Oct-14 13:30N 52°46' E 005°07'0 0.0
2017-Oct-14 13:00N 52°46' E 005°07'0 0.0
2017-Oct-14 12:30N 52°46' E 005°07'0 0.0
2017-Oct-14 12:00N 52°46' E 005°07'0 0.0
2017-Oct-14 11:29N 52°46' E 005°07'0 0.0
2017-Oct-14 10:56N 52°46' E 005°07'0 0.8
2017-Oct-14 10:30N 52°47' E 005°07'3 5.3
2017-Oct-14 10:00N 52°49' E 005°07'3 5.7
2017-Oct-14 09:30N 52°52' E 005°06'3 5.6
2017-Oct-14 09:00N 52°54' E 005°04'  
Track history (hours):
 
Tides and Currents Weather Stations Pressure Air Temp Water Temp Dewpoint Dewpoint Depression Visibility Wind Speed Wind Dir Waves Ship Positions

Wayana

Last reported at 2017-Oct-15 09:13 UTC. Time now 2017-Oct-23 00:51 UTC.
Position N 52°55' E 005°03'.

Length 14 m.

Type: Sailing vessel. MMSI: 244020670.

Date/timePositionNaut miles runAvg speedWind from/ knotsBaromVisibWave heightAir tempDewpointWater temp
2017-Oct-15 09:13N 52°55' E 005°03'0 2.1
2017-Oct-15 09:00N 52°55' E 005°03'3 6.0
2017-Oct-15 08:30N 52°53' E 005°06'3 6.0
2017-Oct-15 08:00N 52°50' E 005°07'3 6.2
2017-Oct-15 07:30N 52°47' E 005°07'0 0.3
2017-Oct-15 06:38N 52°46' E 005°07'0 0.0
2017-Oct-15 06:29N 52°46' E 005°07'0 0.0
2017-Oct-15 05:59N 52°46' E 005°07'0 0.0
2017-Oct-15 05:29N 52°46' E 005°07'0 0.0
2017-Oct-15 04:59N 52°46' E 005°07'0 0.0
2017-Oct-15 04:28N 52°46' E 005°07'0 0.0
2017-Oct-15 03:58N 52°46' E 005°07'0 0.0
2017-Oct-15 03:28N 52°46' E 005°07'0 0.0
2017-Oct-15 02:58N 52°46' E 005°07'0 0.0
2017-Oct-15 02:28N 52°46' E 005°07'0 0.0
2017-Oct-15 01:58N 52°46' E 005°07'0 0.0
2017-Oct-15 01:28N 52°46' E 005°07'0 0.0
2017-Oct-15 00:58N 52°46' E 005°07'0 0.0
2017-Oct-15 00:28N 52°46' E 005°07'0 0.0
2017-Oct-14 23:58N 52°46' E 005°07'0 0.0
2017-Oct-14 23:28N 52°46' E 005°07'0 0.0
2017-Oct-14 22:58N 52°46' E 005°07'0 0.0
2017-Oct-14 22:28N 52°46' E 005°07'0 0.0
2017-Oct-14 21:58N 52°46' E 005°07'0 0.0
2017-Oct-14 21:28N 52°46' E 005°07'0 0.0
2017-Oct-14 20:58N 52°46' E 005°07'0 0.0
2017-Oct-14 20:31N 52°46' E 005°07'0 0.0
2017-Oct-14 20:00N 52°46' E 005°07'0 0.0
2017-Oct-14 19:30N 52°46' E 005°07'0 0.0
2017-Oct-14 19:00N 52°46' E 005°07'0 0.0
2017-Oct-14 18:30N 52°46' E 005°07'0 0.0
2017-Oct-14 18:00N 52°46' E 005°07'0 0.0
2017-Oct-14 17:30N 52°46' E 005°07'0 0.0
2017-Oct-14 17:00N 52°46' E 005°07'0 0.0
2017-Oct-14 16:30N 52°46' E 005°07'0 0.0
2017-Oct-14 16:00N 52°46' E 005°07'0 0.0
2017-Oct-14 15:30N 52°46' E 005°07'0 0.0
2017-Oct-14 15:00N 52°46' E 005°07'0 0.0
2017-Oct-14 14:30N 52°46' E 005°07'0 0.0
2017-Oct-14 14:00N 52°46' E 005°07'0 0.0
2017-Oct-14 13:30N 52°46' E 005°07'0 0.0
2017-Oct-14 13:00N 52°46' E 005°07'0 0.0
2017-Oct-14 12:30N 52°46' E 005°07'0 0.0
2017-Oct-14 12:00N 52°46' E 005°07'0 0.0
2017-Oct-14 11:29N 52°46' E 005°07'0 0.0
2017-Oct-14 10:56N 52°46' E 005°07'0 0.8
2017-Oct-14 10:30N 52°47' E 005°07'3 5.3
2017-Oct-14 10:00N 52°49' E 005°07'3 5.7
2017-Oct-14 09:30N 52°52' E 005°06'3 5.6
2017-Oct-14 09:00N 52°54' E 005°04'  

Dump ship's entire track history